sensor_id;sensor_type;location;lat;lon;timestamp;P1;durP1;ratioP1;P2;durP2;ratioP2
46437;SDS011;32137;48.728;9.142;2023-05-09T00:00:47;24.38;;;19.40;;
46437;SDS011;32137;48.728;9.142;2023-05-09T00:03:12;21.05;;;17.42;;
46437;SDS011;32137;48.728;9.142;2023-05-09T00:05:38;22.50;;;18.42;;
46437;SDS011;32137;48.728;9.142;2023-05-09T00:08:05;26.30;;;19.92;;
46437;SDS011;32137;48.728;9.142;2023-05-09T00:10:31;24.48;;;18.63;;
46437;SDS011;32137;48.728;9.142;2023-05-09T00:12:56;27.02;;;20.20;;
46437;SDS011;32137;48.728;9.142;2023-05-09T00:15:23;23.85;;;18.25;;
46437;SDS011;32137;48.728;9.142;2023-05-09T00:17:50;26.90;;;20.50;;
46437;SDS011;32137;48.728;9.142;2023-05-09T00:20:15;23.02;;;19.20;;
46437;SDS011;32137;48.728;9.142;2023-05-09T00:22:41;23.25;;;19.17;;
46437;SDS011;32137;48.728;9.142;2023-05-09T00:25:07;23.33;;;19.85;;
46437;SDS011;32137;48.728;9.142;2023-05-09T00:27:33;27.70;;;20.50;;
46437;SDS011;32137;48.728;9.142;2023-05-09T00:29:59;25.05;;;20.08;;
46437;SDS011;32137;48.728;9.142;2023-05-09T00:32:25;27.52;;;20.92;;
46437;SDS011;32137;48.728;9.142;2023-05-09T00:34:52;25.13;;;18.35;;
46437;SDS011;32137;48.728;9.142;2023-05-09T00:37:18;33.42;;;19.08;;
46437;SDS011;32137;48.728;9.142;2023-05-09T00:39:45;23.52;;;17.83;;
46437;SDS011;32137;48.728;9.142;2023-05-09T00:42:11;25.38;;;19.02;;
46437;SDS011;32137;48.728;9.142;2023-05-09T00:44:37;22.63;;;17.92;;
46437;SDS011;32137;48.728;9.142;2023-05-09T00:47:02;24.58;;;18.80;;
46437;SDS011;32137;48.728;9.142;2023-05-09T00:49:28;27.00;;;19.48;;
46437;SDS011;32137;48.728;9.142;2023-05-09T00:51:54;23.85;;;18.15;;
46437;SDS011;32137;48.728;9.142;2023-05-09T00:54:20;24.42;;;19.90;;
46437;SDS011;32137;48.728;9.142;2023-05-09T00:56:46;26.30;;;20.55;;
46437;SDS011;32137;48.728;9.142;2023-05-09T00:59:11;24.45;;;20.17;;
46437;SDS011;32137;48.728;9.142;2023-05-09T01:01:37;31.52;;;22.85;;
46437;SDS011;32137;48.728;9.142;2023-05-09T01:04:03;28.60;;;21.77;;
46437;SDS011;32137;48.728;9.142;2023-05-09T01:09:14;26.33;;;20.33;;
46437;SDS011;32137;48.728;9.142;2023-05-09T01:17:38;28.38;;;20.95;;
46437;SDS011;32137;48.728;9.142;2023-05-09T01:20:25;24.30;;;19.27;;
46437;SDS011;32137;48.728;9.142;2023-05-09T01:23:00;28.70;;;20.23;;
46437;SDS011;32137;48.728;9.142;2023-05-09T01:25:48;25.45;;;19.83;;
46437;SDS011;32137;48.728;9.142;2023-05-09T01:30:56;27.58;;;19.40;;
46437;SDS011;32137;48.728;9.142;2023-05-09T01:33:22;26.70;;;18.80;;
46437;SDS011;32137;48.728;9.142;2023-05-09T01:35:51;28.88;;;21.25;;
46437;SDS011;32137;48.728;9.142;2023-05-09T01:38:29;24.88;;;19.52;;
46437;SDS011;32137;48.728;9.142;2023-05-09T01:40:56;25.90;;;20.30;;
46437;SDS011;32137;48.728;9.142;2023-05-09T01:43:24;24.77;;;20.38;;
46437;SDS011;32137;48.728;9.142;2023-05-09T01:45:53;28.48;;;20.17;;
46437;SDS011;32137;48.728;9.142;2023-05-09T01:48:19;30.25;;;20.88;;
46437;SDS011;32137;48.728;9.142;2023-05-09T01:50:50;29.80;;;22.42;;
46437;SDS011;32137;48.728;9.142;2023-05-09T01:53:17;25.60;;;20.23;;
46437;SDS011;32137;48.728;9.142;2023-05-09T01:55:45;29.45;;;20.90;;
46437;SDS011;32137;48.728;9.142;2023-05-09T01:58:12;30.23;;;22.08;;
46437;SDS011;32137;48.728;9.142;2023-05-09T02:00:39;29.42;;;22.23;;
46437;SDS011;32137;48.728;9.142;2023-05-09T02:03:06;28.75;;;21.08;;
46437;SDS011;32137;48.728;9.142;2023-05-09T02:05:32;30.60;;;22.08;;
46437;SDS011;32137;48.728;9.142;2023-05-09T02:08:00;27.08;;;20.95;;
46437;SDS011;32137;48.728;9.142;2023-05-09T02:10:26;30.85;;;21.38;;
46437;SDS011;32137;48.728;9.142;2023-05-09T02:12:52;30.75;;;22.23;;
46437;SDS011;32137;48.728;9.142;2023-05-09T02:15:19;34.53;;;22.65;;
46437;SDS011;32137;48.728;9.142;2023-05-09T02:17:45;32.35;;;23.83;;
46437;SDS011;32137;48.728;9.142;2023-05-09T02:20:11;33.38;;;21.70;;
46437;SDS011;32137;48.728;9.142;2023-05-09T02:22:38;29.13;;;21.05;;
46437;SDS011;32137;48.728;9.142;2023-05-09T02:25:08;29.58;;;21.67;;
46437;SDS011;32137;48.728;9.142;2023-05-09T02:27:35;35.05;;;24.58;;
46437;SDS011;32137;48.728;9.142;2023-05-09T02:30:03;29.77;;;23.48;;
46437;SDS011;32137;48.728;9.142;2023-05-09T02:32:33;31.25;;;23.33;;
46437;SDS011;32137;48.728;9.142;2023-05-09T02:35:01;31.45;;;23.25;;
46437;SDS011;32137;48.728;9.142;2023-05-09T02:37:28;33.30;;;23.27;;
46437;SDS011;32137;48.728;9.142;2023-05-09T02:39:54;33.25;;;21.70;;
46437;SDS011;32137;48.728;9.142;2023-05-09T02:42:21;30.58;;;23.27;;
46437;SDS011;32137;48.728;9.142;2023-05-09T02:44:51;31.52;;;23.90;;
46437;SDS011;32137;48.728;9.142;2023-05-09T02:47:17;31.80;;;23.63;;
46437;SDS011;32137;48.728;9.142;2023-05-09T02:49:43;34.25;;;23.00;;
46437;SDS011;32137;48.728;9.142;2023-05-09T02:52:09;30.23;;;21.98;;
46437;SDS011;32137;48.728;9.142;2023-05-09T02:54:35;27.42;;;20.88;;
46437;SDS011;32137;48.728;9.142;2023-05-09T02:57:01;32.63;;;24.20;;
46437;SDS011;32137;48.728;9.142;2023-05-09T02:59:27;31.42;;;22.75;;
46437;SDS011;32137;48.728;9.142;2023-05-09T03:01:52;37.95;;;23.50;;
46437;SDS011;32137;48.728;9.142;2023-05-09T03:04:18;32.00;;;23.77;;
46437;SDS011;32137;48.728;9.142;2023-05-09T03:06:43;35.78;;;24.23;;
46437;SDS011;32137;48.728;9.142;2023-05-09T03:09:09;35.45;;;24.30;;
46437;SDS011;32137;48.728;9.142;2023-05-09T03:11:35;34.03;;;24.27;;
46437;SDS011;32137;48.728;9.142;2023-05-09T03:14:00;36.45;;;25.42;;
46437;SDS011;32137;48.728;9.142;2023-05-09T03:16:29;35.58;;;25.88;;
46437;SDS011;32137;48.728;9.142;2023-05-09T03:18:55;36.35;;;23.70;;
46437;SDS011;32137;48.728;9.142;2023-05-09T03:21:21;36.95;;;25.75;;
46437;SDS011;32137;48.728;9.142;2023-05-09T03:23:46;37.58;;;24.33;;
46437;SDS011;32137;48.728;9.142;2023-05-09T03:26:12;34.42;;;24.15;;
46437;SDS011;32137;48.728;9.142;2023-05-09T03:28:37;28.63;;;22.38;;
46437;SDS011;32137;48.728;9.142;2023-05-09T03:31:03;31.63;;;24.95;;
46437;SDS011;32137;48.728;9.142;2023-05-09T03:33:29;32.22;;;22.63;;
46437;SDS011;32137;48.728;9.142;2023-05-09T03:35:55;34.55;;;25.27;;
46437;SDS011;32137;48.728;9.142;2023-05-09T03:38:20;40.28;;;26.60;;
46437;SDS011;32137;48.728;9.142;2023-05-09T03:40:49;34.35;;;25.67;;
46437;SDS011;32137;48.728;9.142;2023-05-09T03:43:15;34.50;;;26.70;;
46437;SDS011;32137;48.728;9.142;2023-05-09T03:45:41;37.63;;;26.73;;
46437;SDS011;32137;48.728;9.142;2023-05-09T03:48:07;34.45;;;26.00;;
46437;SDS011;32137;48.728;9.142;2023-05-09T03:50:33;37.80;;;25.55;;
46437;SDS011;32137;48.728;9.142;2023-05-09T03:52:59;37.22;;;25.85;;
46437;SDS011;32137;48.728;9.142;2023-05-09T03:55:25;37.63;;;26.90;;
46437;SDS011;32137;48.728;9.142;2023-05-09T03:57:51;38.30;;;27.17;;
46437;SDS011;32137;48.728;9.142;2023-05-09T04:00:17;35.38;;;26.27;;
46437;SDS011;32137;48.728;9.142;2023-05-09T04:02:43;36.08;;;25.33;;
46437;SDS011;32137;48.728;9.142;2023-05-09T04:05:09;34.83;;;26.80;;
46437;SDS011;32137;48.728;9.142;2023-05-09T04:07:34;34.33;;;26.65;;
46437;SDS011;32137;48.728;9.142;2023-05-09T04:10:00;35.45;;;27.25;;
46437;SDS011;32137;48.728;9.142;2023-05-09T04:12:25;41.08;;;27.33;;
46437;SDS011;32137;48.728;9.142;2023-05-09T04:14:51;35.85;;;26.67;;
46437;SDS011;32137;48.728;9.142;2023-05-09T04:17:17;36.70;;;25.90;;
46437;SDS011;32137;48.728;9.142;2023-05-09T04:19:42;35.72;;;26.17;;
46437;SDS011;32137;48.728;9.142;2023-05-09T04:22:08;38.00;;;26.77;;
46437;SDS011;32137;48.728;9.142;2023-05-09T04:24:33;35.28;;;25.42;;
46437;SDS011;32137;48.728;9.142;2023-05-09T04:26:59;39.30;;;26.13;;
46437;SDS011;32137;48.728;9.142;2023-05-09T04:29:26;39.80;;;25.25;;
46437;SDS011;32137;48.728;9.142;2023-05-09T04:31:51;33.63;;;24.50;;
46437;SDS011;32137;48.728;9.142;2023-05-09T04:34:17;32.50;;;23.48;;
46437;SDS011;32137;48.728;9.142;2023-05-09T04:36:43;40.35;;;27.52;;
46437;SDS011;32137;48.728;9.142;2023-05-09T04:39:08;36.22;;;25.08;;
46437;SDS011;32137;48.728;9.142;2023-05-09T04:41:34;37.78;;;25.73;;
46437;SDS011;32137;48.728;9.142;2023-05-09T04:44:00;38.47;;;25.25;;
46437;SDS011;32137;48.728;9.142;2023-05-09T04:46:27;32.70;;;23.65;;
46437;SDS011;32137;48.728;9.142;2023-05-09T04:48:52;36.53;;;22.88;;
46437;SDS011;32137;48.728;9.142;2023-05-09T04:51:18;28.83;;;22.00;;
46437;SDS011;32137;48.728;9.142;2023-05-09T04:53:43;32.22;;;21.35;;
46437;SDS011;32137;48.728;9.142;2023-05-09T04:56:09;29.85;;;22.48;;
46437;SDS011;32137;48.728;9.142;2023-05-09T04:58:35;27.80;;;21.63;;
46437;SDS011;32137;48.728;9.142;2023-05-09T05:01:04;36.35;;;22.52;;
46437;SDS011;32137;48.728;9.142;2023-05-09T05:03:30;28.10;;;21.05;;
46437;SDS011;32137;48.728;9.142;2023-05-09T05:05:56;29.38;;;19.80;;
46437;SDS011;32137;48.728;9.142;2023-05-09T05:08:21;32.30;;;21.73;;
46437;SDS011;32137;48.728;9.142;2023-05-09T05:10:47;33.08;;;21.58;;
46437;SDS011;32137;48.728;9.142;2023-05-09T05:13:13;31.38;;;22.95;;
46437;SDS011;32137;48.728;9.142;2023-05-09T05:15:40;32.05;;;23.88;;
46437;SDS011;32137;48.728;9.142;2023-05-09T05:18:06;32.53;;;22.35;;
46437;SDS011;32137;48.728;9.142;2023-05-09T05:20:31;30.30;;;23.05;;
46437;SDS011;32137;48.728;9.142;2023-05-09T05:22:57;32.90;;;23.17;;
46437;SDS011;32137;48.728;9.142;2023-05-09T05:25:23;31.02;;;21.85;;
46437;SDS011;32137;48.728;9.142;2023-05-09T05:27:49;35.63;;;26.27;;
46437;SDS011;32137;48.728;9.142;2023-05-09T05:30:15;36.75;;;27.40;;
46437;SDS011;32137;48.728;9.142;2023-05-09T05:32:40;36.90;;;23.92;;
46437;SDS011;32137;48.728;9.142;2023-05-09T05:35:07;34.75;;;23.88;;
46437;SDS011;32137;48.728;9.142;2023-05-09T05:37:35;39.38;;;24.90;;
46437;SDS011;32137;48.728;9.142;2023-05-09T05:40:02;36.90;;;24.42;;
46437;SDS011;32137;48.728;9.142;2023-05-09T05:42:28;31.33;;;23.73;;
46437;SDS011;32137;48.728;9.142;2023-05-09T05:44:54;32.05;;;23.75;;
46437;SDS011;32137;48.728;9.142;2023-05-09T05:47:19;34.40;;;25.63;;
46437;SDS011;32137;48.728;9.142;2023-05-09T05:49:45;35.17;;;24.30;;
46437;SDS011;32137;48.728;9.142;2023-05-09T05:52:10;34.92;;;26.15;;
46437;SDS011;32137;48.728;9.142;2023-05-09T05:54:36;44.17;;;28.55;;
46437;SDS011;32137;48.728;9.142;2023-05-09T05:57:01;38.53;;;28.50;;
46437;SDS011;32137;48.728;9.142;2023-05-09T05:59:27;35.25;;;26.92;;
46437;SDS011;32137;48.728;9.142;2023-05-09T06:01:52;35.50;;;26.63;;
46437;SDS011;32137;48.728;9.142;2023-05-09T06:04:18;40.38;;;27.30;;
46437;SDS011;32137;48.728;9.142;2023-05-09T06:06:44;37.72;;;27.85;;
46437;SDS011;32137;48.728;9.142;2023-05-09T06:09:10;33.95;;;26.02;;
46437;SDS011;32137;48.728;9.142;2023-05-09T06:11:36;43.08;;;27.38;;
46437;SDS011;32137;48.728;9.142;2023-05-09T06:14:01;39.33;;;27.88;;
46437;SDS011;32137;48.728;9.142;2023-05-09T06:16:27;38.50;;;27.73;;
46437;SDS011;32137;48.728;9.142;2023-05-09T06:18:52;41.40;;;29.25;;
46437;SDS011;32137;48.728;9.142;2023-05-09T06:21:18;36.10;;;26.38;;
46437;SDS011;32137;48.728;9.142;2023-05-09T06:23:43;42.70;;;28.20;;
46437;SDS011;32137;48.728;9.142;2023-05-09T06:26:09;39.28;;;26.77;;
46437;SDS011;32137;48.728;9.142;2023-05-09T06:28:36;34.05;;;25.95;;
46437;SDS011;32137;48.728;9.142;2023-05-09T06:31:02;39.30;;;28.40;;
46437;SDS011;32137;48.728;9.142;2023-05-09T06:33:28;34.63;;;26.02;;
46437;SDS011;32137;48.728;9.142;2023-05-09T06:35:53;40.30;;;26.42;;
46437;SDS011;32137;48.728;9.142;2023-05-09T06:38:19;40.80;;;27.90;;
46437;SDS011;32137;48.728;9.142;2023-05-09T06:40:44;38.80;;;28.48;;
46437;SDS011;32137;48.728;9.142;2023-05-09T06:43:10;40.10;;;27.35;;
46437;SDS011;32137;48.728;9.142;2023-05-09T06:45:35;40.70;;;27.48;;
46437;SDS011;32137;48.728;9.142;2023-05-09T06:48:01;42.88;;;27.45;;
46437;SDS011;32137;48.728;9.142;2023-05-09T06:50:27;34.53;;;26.58;;
46437;SDS011;32137;48.728;9.142;2023-05-09T06:52:52;40.63;;;28.40;;
46437;SDS011;32137;48.728;9.142;2023-05-09T06:55:18;33.00;;;25.55;;
46437;SDS011;32137;48.728;9.142;2023-05-09T06:57:43;42.17;;;27.98;;
46437;SDS011;32137;48.728;9.142;2023-05-09T07:00:09;35.95;;;25.65;;
46437;SDS011;32137;48.728;9.142;2023-05-09T07:02:35;33.90;;;25.25;;
46437;SDS011;32137;48.728;9.142;2023-05-09T07:05:01;40.78;;;26.50;;
46437;SDS011;32137;48.728;9.142;2023-05-09T07:07:26;37.85;;;26.98;;
46437;SDS011;32137;48.728;9.142;2023-05-09T07:09:52;38.35;;;25.70;;
46437;SDS011;32137;48.728;9.142;2023-05-09T07:12:18;31.77;;;23.15;;
46437;SDS011;32137;48.728;9.142;2023-05-09T07:14:43;31.17;;;22.73;;
46437;SDS011;32137;48.728;9.142;2023-05-09T07:17:09;35.20;;;25.40;;
46437;SDS011;32137;48.728;9.142;2023-05-09T07:19:34;34.67;;;22.92;;
46437;SDS011;32137;48.728;9.142;2023-05-09T07:22:00;35.45;;;23.55;;
46437;SDS011;32137;48.728;9.142;2023-05-09T07:24:25;31.80;;;24.45;;
46437;SDS011;32137;48.728;9.142;2023-05-09T07:26:51;40.03;;;24.95;;
46437;SDS011;32137;48.728;9.142;2023-05-09T07:29:17;32.13;;;24.23;;
46437;SDS011;32137;48.728;9.142;2023-05-09T07:31:44;38.35;;;25.90;;
46437;SDS011;32137;48.728;9.142;2023-05-09T07:34:09;32.85;;;24.17;;
46437;SDS011;32137;48.728;9.142;2023-05-09T07:36:35;48.10;;;30.52;;
46437;SDS011;32137;48.728;9.142;2023-05-09T07:39:01;37.72;;;25.48;;
46437;SDS011;32137;48.728;9.142;2023-05-09T07:41:28;36.33;;;25.70;;
46437;SDS011;32137;48.728;9.142;2023-05-09T07:43:55;32.47;;;24.33;;
46437;SDS011;32137;48.728;9.142;2023-05-09T07:46:20;33.97;;;24.25;;
46437;SDS011;32137;48.728;9.142;2023-05-09T07:48:46;32.50;;;21.95;;
46437;SDS011;32137;48.728;9.142;2023-05-09T07:51:11;31.02;;;23.05;;
46437;SDS011;32137;48.728;9.142;2023-05-09T07:53:37;28.58;;;21.73;;
46437;SDS011;32137;48.728;9.142;2023-05-09T07:56:02;30.73;;;20.98;;
46437;SDS011;32137;48.728;9.142;2023-05-09T07:58:30;34.42;;;22.20;;
46437;SDS011;32137;48.728;9.142;2023-05-09T08:00:56;39.22;;;24.88;;
46437;SDS011;32137;48.728;9.142;2023-05-09T08:03:22;32.75;;;21.98;;
46437;SDS011;32137;48.728;9.142;2023-05-09T08:05:47;29.55;;;21.60;;
46437;SDS011;32137;48.728;9.142;2023-05-09T08:08:13;33.80;;;20.00;;
46437;SDS011;32137;48.728;9.142;2023-05-09T08:10:39;27.48;;;21.30;;
46437;SDS011;32137;48.728;9.142;2023-05-09T08:13:04;29.73;;;20.40;;
46437;SDS011;32137;48.728;9.142;2023-05-09T08:15:30;25.13;;;18.75;;
46437;SDS011;32137;48.728;9.142;2023-05-09T08:17:55;24.25;;;19.08;;
46437;SDS011;32137;48.728;9.142;2023-05-09T08:20:21;24.83;;;17.60;;
46437;SDS011;32137;48.728;9.142;2023-05-09T08:22:49;21.08;;;16.45;;
46437;SDS011;32137;48.728;9.142;2023-05-09T08:25:14;22.02;;;16.98;;
46437;SDS011;32137;48.728;9.142;2023-05-09T08:27:42;22.65;;;16.85;;
46437;SDS011;32137;48.728;9.142;2023-05-09T08:30:08;24.27;;;16.58;;
46437;SDS011;32137;48.728;9.142;2023-05-09T08:32:34;22.58;;;16.35;;
46437;SDS011;32137;48.728;9.142;2023-05-09T08:34:59;23.67;;;14.65;;
46437;SDS011;32137;48.728;9.142;2023-05-09T08:37:25;18.63;;;15.02;;
46437;SDS011;32137;48.728;9.142;2023-05-09T08:39:51;20.10;;;16.50;;
46437;SDS011;32137;48.728;9.142;2023-05-09T08:42:17;18.50;;;14.05;;
46437;SDS011;32137;48.728;9.142;2023-05-09T08:44:46;22.13;;;16.67;;
46437;SDS011;32137;48.728;9.142;2023-05-09T08:47:12;18.10;;;13.00;;
46437;SDS011;32137;48.728;9.142;2023-05-09T08:49:39;14.63;;;11.80;;
46437;SDS011;32137;48.728;9.142;2023-05-09T08:52:05;13.30;;;9.63;;
46437;SDS011;32137;48.728;9.142;2023-05-09T08:54:31;15.18;;;9.95;;
46437;SDS011;32137;48.728;9.142;2023-05-09T08:56:57;12.93;;;10.38;;
46437;SDS011;32137;48.728;9.142;2023-05-09T08:59:25;8.15;;;6.85;;
46437;SDS011;32137;48.728;9.142;2023-05-09T09:01:51;10.45;;;8.75;;
46437;SDS011;32137;48.728;9.142;2023-05-09T09:04:17;10.07;;;7.10;;
46437;SDS011;32137;48.728;9.142;2023-05-09T09:06:43;14.73;;;9.98;;
46437;SDS011;32137;48.728;9.142;2023-05-09T09:09:10;14.50;;;10.35;;
46437;SDS011;32137;48.728;9.142;2023-05-09T09:11:37;12.82;;;10.18;;
46437;SDS011;32137;48.728;9.142;2023-05-09T09:14:16;10.85;;;8.95;;
46437;SDS011;32137;48.728;9.142;2023-05-09T09:16:46;17.47;;;9.47;;
46437;SDS011;32137;48.728;9.142;2023-05-09T09:19:15;15.02;;;11.75;;
46437;SDS011;32137;48.728;9.142;2023-05-09T09:21:42;15.18;;;11.38;;
46437;SDS011;32137;48.728;9.142;2023-05-09T09:24:13;16.38;;;11.13;;
46437;SDS011;32137;48.728;9.142;2023-05-09T09:26:45;14.48;;;11.98;;
46437;SDS011;32137;48.728;9.142;2023-05-09T09:29:12;13.48;;;10.85;;
46437;SDS011;32137;48.728;9.142;2023-05-09T09:31:38;15.23;;;10.85;;
46437;SDS011;32137;48.728;9.142;2023-05-09T09:34:09;12.73;;;9.97;;
46437;SDS011;32137;48.728;9.142;2023-05-09T09:36:34;14.88;;;11.30;;
46437;SDS011;32137;48.728;9.142;2023-05-09T09:39:01;12.02;;;10.73;;
46437;SDS011;32137;48.728;9.142;2023-05-09T09:41:32;15.65;;;11.07;;
46437;SDS011;32137;48.728;9.142;2023-05-09T09:43:58;13.43;;;11.77;;
46437;SDS011;32137;48.728;9.142;2023-05-09T09:46:34;11.65;;;10.38;;
46437;SDS011;32137;48.728;9.142;2023-05-09T09:49:12;16.83;;;11.27;;
46437;SDS011;32137;48.728;9.142;2023-05-09T09:51:42;12.68;;;9.73;;
46437;SDS011;32137;48.728;9.142;2023-05-09T09:54:09;12.20;;;9.93;;
46437;SDS011;32137;48.728;9.142;2023-05-09T09:56:39;11.00;;;9.50;;
46437;SDS011;32137;48.728;9.142;2023-05-09T09:59:09;12.63;;;9.80;;
46437;SDS011;32137;48.728;9.142;2023-05-09T10:01:59;11.55;;;9.00;;
46437;SDS011;32137;48.728;9.142;2023-05-09T10:04:27;14.60;;;10.48;;
46437;SDS011;32137;48.728;9.142;2023-05-09T10:06:59;18.08;;;11.63;;
46437;SDS011;32137;48.728;9.142;2023-05-09T10:09:30;16.98;;;12.95;;
46437;SDS011;32137;48.728;9.142;2023-05-09T10:12:00;16.98;;;13.25;;
46437;SDS011;32137;48.728;9.142;2023-05-09T10:14:28;16.35;;;13.02;;
46437;SDS011;32137;48.728;9.142;2023-05-09T10:16:56;18.52;;;13.05;;
46437;SDS011;32137;48.728;9.142;2023-05-09T10:19:22;15.10;;;12.38;;
46437;SDS011;32137;48.728;9.142;2023-05-09T10:22:01;18.95;;;12.57;;
46437;SDS011;32137;48.728;9.142;2023-05-09T10:24:46;21.88;;;11.80;;
46437;SDS011;32137;48.728;9.142;2023-05-09T10:27:19;16.05;;;12.55;;
46437;SDS011;32137;48.728;9.142;2023-05-09T10:29:48;18.73;;;12.00;;
46437;SDS011;32137;48.728;9.142;2023-05-09T10:32:22;13.80;;;11.70;;
46437;SDS011;32137;48.728;9.142;2023-05-09T10:34:52;17.25;;;11.80;;
46437;SDS011;32137;48.728;9.142;2023-05-09T10:37:20;20.85;;;12.45;;
46437;SDS011;32137;48.728;9.142;2023-05-09T10:39:46;17.02;;;10.88;;
46437;SDS011;32137;48.728;9.142;2023-05-09T10:42:17;14.77;;;11.98;;
46437;SDS011;32137;48.728;9.142;2023-05-09T10:44:43;20.63;;;12.50;;
46437;SDS011;32137;48.728;9.142;2023-05-09T10:47:10;12.52;;;10.13;;
46437;SDS011;32137;48.728;9.142;2023-05-09T10:49:37;17.48;;;11.57;;
46437;SDS011;32137;48.728;9.142;2023-05-09T10:52:03;15.85;;;11.30;;
46437;SDS011;32137;48.728;9.142;2023-05-09T10:54:29;13.85;;;10.52;;
46437;SDS011;32137;48.728;9.142;2023-05-09T10:56:58;15.32;;;9.48;;
46437;SDS011;32137;48.728;9.142;2023-05-09T10:59:34;13.55;;;9.65;;
46437;SDS011;32137;48.728;9.142;2023-05-09T11:02:10;11.63;;;8.88;;
46437;SDS011;32137;48.728;9.142;2023-05-09T11:04:37;18.17;;;9.47;;
46437;SDS011;32137;48.728;9.142;2023-05-09T11:07:04;12.15;;;9.55;;
46437;SDS011;32137;48.728;9.142;2023-05-09T11:09:49;10.02;;;7.20;;
46437;SDS011;32137;48.728;9.142;2023-05-09T11:12:17;13.05;;;8.05;;
46437;SDS011;32137;48.728;9.142;2023-05-09T11:14:48;10.35;;;6.38;;
46437;SDS011;32137;48.728;9.142;2023-05-09T11:24:48;4.70;;;3.88;;
46437;SDS011;32137;48.728;9.142;2023-05-09T11:29:54;5.10;;;4.32;;
46437;SDS011;32137;48.728;9.142;2023-05-09T11:32:26;5.88;;;3.85;;
46437;SDS011;32137;48.728;9.142;2023-05-09T11:35:05;5.97;;;4.45;;
46437;SDS011;32137;48.728;9.142;2023-05-09T11:40:19;5.97;;;3.50;;
46437;SDS011;32137;48.728;9.142;2023-05-09T11:42:47;3.55;;;2.72;;
46437;SDS011;32137;48.728;9.142;2023-05-09T11:45:14;2.97;;;2.67;;
46437;SDS011;32137;48.728;9.142;2023-05-09T11:47:40;3.35;;;2.65;;
46437;SDS011;32137;48.728;9.142;2023-05-09T11:50:10;5.70;;;3.25;;
46437;SDS011;32137;48.728;9.142;2023-05-09T11:52:37;3.20;;;2.72;;
46437;SDS011;32137;48.728;9.142;2023-05-09T11:55:07;2.80;;;1.48;;
46437;SDS011;32137;48.728;9.142;2023-05-09T11:57:41;2.33;;;2.03;;
46437;SDS011;32137;48.728;9.142;2023-05-09T12:02:35;2.10;;;1.90;;
46437;SDS011;32137;48.728;9.142;2023-05-09T12:05:17;3.42;;;2.67;;
46437;SDS011;32137;48.728;9.142;2023-05-09T12:07:44;7.13;;;2.60;;
46437;SDS011;32137;48.728;9.142;2023-05-09T12:10:11;4.05;;;1.92;;
46437;SDS011;32137;48.728;9.142;2023-05-09T12:12:42;2.97;;;2.03;;
46437;SDS011;32137;48.728;9.142;2023-05-09T12:15:09;2.95;;;1.70;;
46437;SDS011;32137;48.728;9.142;2023-05-09T12:17:37;2.30;;;1.75;;
46437;SDS011;32137;48.728;9.142;2023-05-09T12:20:03;3.03;;;1.75;;
46437;SDS011;32137;48.728;9.142;2023-05-09T12:22:30;4.18;;;1.90;;
46437;SDS011;32137;48.728;9.142;2023-05-09T12:24:57;2.00;;;1.48;;
46437;SDS011;32137;48.728;9.142;2023-05-09T12:27:25;2.10;;;1.80;;
46437;SDS011;32137;48.728;9.142;2023-05-09T12:29:52;2.42;;;2.05;;
46437;SDS011;32137;48.728;9.142;2023-05-09T12:32:19;2.38;;;1.70;;
46437;SDS011;32137;48.728;9.142;2023-05-09T12:34:44;2.00;;;1.38;;
46437;SDS011;32137;48.728;9.142;2023-05-09T12:37:15;3.40;;;1.60;;
46437;SDS011;32137;48.728;9.142;2023-05-09T12:39:59;1.63;;;1.42;;
46437;SDS011;32137;48.728;9.142;2023-05-09T12:42:29;2.22;;;1.52;;
46437;SDS011;32137;48.728;9.142;2023-05-09T12:44:59;2.33;;;1.30;;
46437;SDS011;32137;48.728;9.142;2023-05-09T12:47:29;3.53;;;1.73;;
46437;SDS011;32137;48.728;9.142;2023-05-09T12:50:02;2.33;;;1.83;;
46437;SDS011;32137;48.728;9.142;2023-05-09T12:52:32;2.28;;;1.73;;
46437;SDS011;32137;48.728;9.142;2023-05-09T12:55:20;3.08;;;2.03;;
46437;SDS011;32137;48.728;9.142;2023-05-09T12:57:55;2.25;;;1.70;;
46437;SDS011;32137;48.728;9.142;2023-05-09T13:00:25;1.90;;;1.58;;
46437;SDS011;32137;48.728;9.142;2023-05-09T13:02:51;2.17;;;1.90;;
46437;SDS011;32137;48.728;9.142;2023-05-09T13:05:20;2.00;;;1.67;;
46437;SDS011;32137;48.728;9.142;2023-05-09T13:07:50;2.55;;;1.80;;
46437;SDS011;32137;48.728;9.142;2023-05-09T13:10:23;5.40;;;1.83;;
46437;SDS011;32137;48.728;9.142;2023-05-09T13:12:52;2.72;;;1.90;;
46437;SDS011;32137;48.728;9.142;2023-05-09T13:15:18;2.85;;;2.00;;
46437;SDS011;32137;48.728;9.142;2023-05-09T13:17:45;2.20;;;2.00;;
46437;SDS011;32137;48.728;9.142;2023-05-09T13:20:11;2.40;;;1.70;;
46437;SDS011;32137;48.728;9.142;2023-05-09T13:22:37;4.43;;;1.80;;
46437;SDS011;32137;48.728;9.142;2023-05-09T13:25:03;1.85;;;1.60;;
46437;SDS011;32137;48.728;9.142;2023-05-09T13:27:29;4.50;;;1.42;;
46437;SDS011;32137;48.728;9.142;2023-05-09T13:29:55;2.22;;;1.70;;
46437;SDS011;32137;48.728;9.142;2023-05-09T13:32:20;5.72;;;2.55;;
46437;SDS011;32137;48.728;9.142;2023-05-09T13:34:46;2.42;;;1.90;;
46437;SDS011;32137;48.728;9.142;2023-05-09T13:37:12;3.08;;;2.15;;
46437;SDS011;32137;48.728;9.142;2023-05-09T13:39:37;2.60;;;2.22;;
46437;SDS011;32137;48.728;9.142;2023-05-09T13:42:03;3.05;;;2.03;;
46437;SDS011;32137;48.728;9.142;2023-05-09T13:44:28;4.20;;;2.03;;
46437;SDS011;32137;48.728;9.142;2023-05-09T13:46:54;6.25;;;2.47;;
46437;SDS011;32137;48.728;9.142;2023-05-09T13:49:21;6.75;;;2.95;;
46437;SDS011;32137;48.728;9.142;2023-05-09T13:51:47;3.05;;;2.30;;
46437;SDS011;32137;48.728;9.142;2023-05-09T13:54:13;5.07;;;2.75;;
46437;SDS011;32137;48.728;9.142;2023-05-09T13:56:41;6.60;;;2.33;;
46437;SDS011;32137;48.728;9.142;2023-05-09T13:59:07;2.45;;;2.03;;
46437;SDS011;32137;48.728;9.142;2023-05-09T14:01:33;4.07;;;2.20;;
46437;SDS011;32137;48.728;9.142;2023-05-09T14:03:59;3.90;;;2.47;;
46437;SDS011;32137;48.728;9.142;2023-05-09T14:06:25;4.75;;;2.22;;
46437;SDS011;32137;48.728;9.142;2023-05-09T14:08:51;4.03;;;2.35;;
46437;SDS011;32137;48.728;9.142;2023-05-09T14:11:17;6.20;;;2.35;;
46437;SDS011;32137;48.728;9.142;2023-05-09T14:13:42;9.75;;;3.22;;
46437;SDS011;32137;48.728;9.142;2023-05-09T14:16:08;4.30;;;1.90;;
46437;SDS011;32137;48.728;9.142;2023-05-09T14:18:33;5.43;;;2.47;;
46437;SDS011;32137;48.728;9.142;2023-05-09T14:20:59;2.42;;;2.05;;
46437;SDS011;32137;48.728;9.142;2023-05-09T14:23:25;4.82;;;2.13;;
46437;SDS011;32137;48.728;9.142;2023-05-09T14:25:51;3.30;;;2.58;;
46437;SDS011;32137;48.728;9.142;2023-05-09T14:28:16;2.17;;;1.70;;
46437;SDS011;32137;48.728;9.142;2023-05-09T14:30:42;2.03;;;1.13;;
46437;SDS011;32137;48.728;9.142;2023-05-09T14:33:08;6.78;;;2.20;;
46437;SDS011;32137;48.728;9.142;2023-05-09T14:35:33;1.52;;;0.90;;
46437;SDS011;32137;48.728;9.142;2023-05-09T14:37:59;2.45;;;1.20;;
46437;SDS011;32137;48.728;9.142;2023-05-09T14:40:25;2.25;;;1.05;;
46437;SDS011;32137;48.728;9.142;2023-05-09T14:42:56;2.28;;;1.33;;
46437;SDS011;32137;48.728;9.142;2023-05-09T14:45:26;2.70;;;1.30;;
46437;SDS011;32137;48.728;9.142;2023-05-09T14:47:53;1.55;;;1.20;;
46437;SDS011;32137;48.728;9.142;2023-05-09T14:50:19;2.88;;;1.55;;
46437;SDS011;32137;48.728;9.142;2023-05-09T14:52:45;3.97;;;1.63;;
46437;SDS011;32137;48.728;9.142;2023-05-09T14:55:12;2.38;;;1.27;;